Weather at Charles Prince Airport

Public forecast

Using degrees Celsius for public forecast. Weather courtesy of forecast.io.

Closest aviation weather report (METAR) to Charles Prince Airport

Report is more than 6 hours old.

Closest report is Robert Gabriel Mugabe International Airport, 14.5 nm (26.8 km) SE. Retrieved 2020/09/22 07:00 UTC (1 day ago):

FVRG 220700Z 12013KT 9999 FEW025 20/10 Q1029 NOSIG

Closest aviation forecast (TAF) to Charles Prince Airport

Forecast is more than 12 hours old.

Closest forecast is Robert Gabriel Mugabe International Airport, 14.5 nm (26.8 km) SE. Retrieved 2020/09/22 06:00 UTC (1 day ago):

TAF FVRG 220400Z 2206/2312 11010KT CAVOK